TNCMTRPG

Guest
Details From TNCM - St Maarten - Princess Juliana Intl
To TRPG - Montserrat - John A Osborne
Flight Number -
Tags generated
Created
Modified
Stats Distance 92 nm / 171 km
Max Altitude 100 ft / 30 m
Waypoints 3
Social Downloads 0
Likes 0
Share VATSIM

Download

Looking for another format? Having issues loading an existing format? Contact us
Advertisement - Login to hide

Notes

Basic altitude profile: - Ascent Rate: 2500ft/min - Ascent Speed: 250kts - Cruise Altitude: 35000ft - Cruise Speed: 420kts - Descent Rate: 1500ft/min - Descent Speed: 250kts

Route

TNCM PJM TRPG

ID Type Via Altitude Latitude Longitude Leg Dist Tot Dist Heading (true) Name
O TNCM APT - 0 ft / 0 m 18.04089˚ -63.10897˚ - 0 nm - St Maarten - Princess Juliana Intl
PJM VOR - 100 ft / 30 m 18.03811˚ -63.11828˚ 0 nm 0 nm 253° / 253° ST MAARTEN VOR-DME
O TRPG APT - 0 ft / 0 m 16.79134˚ -62.19333˚ 91 nm 92 nm 145° / 145° Montserrat - John A Osborne

Altitude Profile

Advertisement - Login to hide

TNCM

Details ICAO TNCM (SXM)
Name St Maarten - Princess Juliana Intl
Region Caribbean Netherlands, Aruba, Curaçao, Sint Maarten
Timezone Unknown (UTC+0.0)
Stats Elevation 12 ft / 4 m (AMSL)
Location 18.040889° -63.108974°
Runways 1
Magnetic Variation 14.325° W

METAR

TNCM 132100Z 14007KT 100V180 9999 FEW019 28/22 Q1015 A2999 NOSIG

Decode

TAF

TNCM 131739Z 1318/1418 14010KT P6SM VCSH FEW020 FM132300 09006KT P6SM SCT022 FM141200 13012KT P6SM FEW022

Decode

Departure Runways

ID Width Length Bearing (true) Bearing (mag) Surface Threshold Offset Overrun Length
10 148 ft / 45 m 7,464 ft / 2,275 m 81.43° 95.76° Asphalt 0 ft / 0 m 151 ft / 46 m
28 148 ft / 45 m 7,464 ft / 2,275 m 261.44° 275.77° Asphalt 397 ft / 121 m 0 ft / 0 m

TRPG

Details ICAO TRPG (MNI)
Name Montserrat - John A Osborne
Region UK (Montserrat)
Timezone America/Montserrat (UTC-4.0)
Stats Elevation 551 ft / 168 m (AMSL)
Location 16.791335° -62.193328°
Runways 1
Magnetic Variation 14.630° W

METAR

TRPG 132100Z 13006KT 9999 FEW025 25/23 Q1016

Decode

TAF

TAF TAF TRPG 131201Z 1312/1412 00000KT 9999 FEWO22

Decode

Destination Runways

ID Width Length Bearing (true) Bearing (mag) Surface Threshold Offset Overrun Length
10 66 ft / 20 m 1,954 ft / 595 m 90.00° 104.63° Asphalt 98 ft / 30 m 0 ft / 0 m
28 66 ft / 20 m 1,954 ft / 595 m 270.00° 284.63° Asphalt 98 ft / 30 m 0 ft / 0 m